Agnew, Washington
Current Conditions -  °F | °C
As of 8:53 AM on Saturday 25 Oct 2014 (Local Time) from KCLM Reporting Station
Overcast Overcast  
Wind Chill: 50°   Ceiling: 700
Heat Index: 50°   Visibility: 10mi
Dew Point: 47°   Wind: 9mph
Humidity: 89%   Direction: 100°E
Pressure: 29.47"   Gusts: NA
Location:  48.0203°N, 123.478°W
Report Text: KCLM 251553Z AUTO 10008KT 10SM OVC007 10/08 A2947 RMK AO2 RAE50 CIG 006V010 SLP979 P0003 T01000083 TSNO $
Loading
Personal Weather Stations






























Interactive Weather Map
Tropical Storm Tracking
New forecast layout! Learn more

10-Day Weather Forecast

Advertisements
Track Severe Weather on mobile